Time;durP1;ratioP1;P1;durP2;ratioP2;P2;SDS_P1;SDS_P2;PMS_P1;PMS_P2;Temp;Humidity;BMP_temperature;BMP_pressure;BME280_temperature;BME280_humidity;BME280_pressure;Samples;Min_cycle;Max_cycle;Signal;HPM_P1;HPM_P2
2022/04/02 00:01:17;;;;;;;21.58;13.77;;;;;;;;;;5053072;28;20233;-68
2022/04/02 00:03:43;;;;;;;22.70;13.98;;;;;;;;;;5053011;28;20316;-76
2022/04/02 00:06:09;;;;;;;20.17;13.40;;;;;;;;;;5053264;28;20177;-76
2022/04/02 00:08:35;;;;;;;21.15;13.27;;;;;;;;;;5053123;28;20209;-74
2022/04/02 00:11:01;;;;;;;21.63;13.60;;;;;;;;;;5053283;28;20179;-84
2022/04/02 00:13:27;;;;;;;21.13;12.95;;;;;;;;;;5051908;28;20430;-66
2022/04/02 00:15:54;;;;;;;23.13;13.98;;;;;;;;;;5053376;28;20180;-83
2022/04/02 00:18:21;;;;;;;22.85;14.10;;;;;;;;;;5053442;28;20676;-71
2022/04/02 00:20:47;;;;;;;18.00;12.40;;;;;;;;;;5053340;28;20182;-79
2022/04/02 00:25:57;;;;;;;25.60;14.48;;;;;;;;;;5053139;28;20409;-65
2022/04/02 00:28:23;;;;;;;23.47;14.50;;;;;;;;;;5053768;28;20527;-80
2022/04/02 00:30:49;;;;;;;21.97;13.63;;;;;;;;;;5052933;28;20399;-82
2022/04/02 00:33:15;;;;;;;24.20;13.87;;;;;;;;;;5051788;28;20521;-69
2022/04/02 00:35:42;;;;;;;25.40;14.73;;;;;;;;;;5052401;28;20455;-83
2022/04/02 00:38:08;;;;;;;25.13;14.60;;;;;;;;;;5053426;28;20169;-80
2022/04/02 00:40:34;;;;;;;23.65;15.00;;;;;;;;;;5053624;28;20179;-65
2022/04/02 00:43:00;;;;;;;23.58;15.68;;;;;;;;;;5053425;28;20212;-67
2022/04/02 00:45:26;;;;;;;25.60;15.63;;;;;;;;;;5054889;28;20172;-68
2022/04/02 00:47:52;;;;;;;23.70;14.32;;;;;;;;;;5055649;28;20402;-66
2022/04/02 00:50:18;;;;;;;25.13;14.90;;;;;;;;;;5056815;28;20182;-80
2022/04/02 00:52:44;;;;;;;23.17;14.67;;;;;;;;;;5055958;28;20416;-74
2022/04/02 00:55:10;;;;;;;21.70;13.82;;;;;;;;;;5058110;28;20460;-75
2022/04/02 00:57:36;;;;;;;22.40;14.47;;;;;;;;;;5057485;28;20184;-81
2022/04/02 01:00:03;;;;;;;23.48;15.10;;;;;;;;;;5057389;28;20410;-77
2022/04/02 01:02:29;;;;;;;24.65;15.15;;;;;;;;;;5057408;28;20632;-83
2022/04/02 01:04:56;;;;;;;23.63;14.87;;;;;;;;;;5056131;28;20643;-65
2022/04/02 01:07:22;;;;;;;24.60;15.60;;;;;;;;;;5058419;28;20774;-81
2022/04/02 01:09:48;;;;;;;20.33;13.95;;;;;;;;;;5058129;28;20167;-78
2022/04/02 01:12:14;;;;;;;21.65;14.07;;;;;;;;;;5058484;28;20599;-65
2022/04/02 01:14:40;;;;;;;28.23;15.27;;;;;;;;;;5057681;28;20184;-82
2022/04/02 01:17:06;;;;;;;22.88;14.63;;;;;;;;;;5057912;28;20522;-82
2022/04/02 01:19:33;;;;;;;24.17;14.85;;;;;;;;;;5057436;28;20278;-74
2022/04/02 01:21:59;;;;;;;26.55;14.40;;;;;;;;;;5056902;28;20189;-83
2022/04/02 01:24:25;;;;;;;23.03;13.93;;;;;;;;;;5056619;28;20300;-81
2022/04/02 01:26:51;;;;;;;20.83;14.40;;;;;;;;;;5057255;28;20412;-78
2022/04/02 01:29:18;;;;;;;22.90;14.98;;;;;;;;;;5056876;28;20424;-69
2022/04/02 01:31:45;;;;;;;24.70;15.18;;;;;;;;;;5056617;28;20230;-82
2022/04/02 01:34:11;;;;;;;22.58;15.10;;;;;;;;;;5056380;28;20259;-72
2022/04/02 01:36:37;;;;;;;22.25;13.88;;;;;;;;;;5055971;28;20180;-83
2022/04/02 01:39:03;;;;;;;21.77;14.07;;;;;;;;;;5055793;28;20550;-81
2022/04/02 01:41:29;;;;;;;22.75;14.05;;;;;;;;;;5055854;28;20437;-82
2022/04/02 01:43:55;;;;;;;21.07;13.30;;;;;;;;;;5056109;28;20216;-70
2022/04/02 01:46:21;;;;;;;21.55;13.73;;;;;;;;;;5055438;28;20402;-83
2022/04/02 01:48:47;;;;;;;24.00;14.32;;;;;;;;;;5055645;28;20231;-79
2022/04/02 01:51:13;;;;;;;21.98;13.10;;;;;;;;;;5055544;28;20177;-83
2022/04/02 01:53:39;;;;;;;19.87;13.17;;;;;;;;;;5055471;28;20504;-80
2022/04/02 01:56:08;;;;;;;21.23;12.60;;;;;;;;;;5055004;28;20391;-77
2022/04/02 01:58:34;;;;;;;20.90;14.13;;;;;;;;;;5055234;28;20517;-66
2022/04/02 02:01:00;;;;;;;20.47;14.30;;;;;;;;;;5055393;28;20173;-82
2022/04/02 02:03:26;;;;;;;20.60;12.93;;;;;;;;;;5055046;28;20470;-83
2022/04/02 02:05:53;;;;;;;21.65;12.88;;;;;;;;;;5054551;28;20414;-82
2022/04/02 02:08:19;;;;;;;19.95;12.45;;;;;;;;;;5055081;28;20623;-77
2022/04/02 02:10:47;;;;;;;18.35;12.10;;;;;;;;;;5054913;28;20635;-82
2022/04/02 02:13:13;;;;;;;20.48;13.70;;;;;;;;;;5055024;28;20175;-72
2022/04/02 02:15:39;;;;;;;19.25;12.25;;;;;;;;;;5054817;28;20179;-84
2022/04/02 02:18:05;;;;;;;21.60;13.27;;;;;;;;;;5054840;28;20177;-68
2022/04/02 02:20:31;;;;;;;16.38;11.05;;;;;;;;;;5054978;28;20164;-71
2022/04/02 02:22:57;;;;;;;17.75;11.38;;;;;;;;;;5054631;28;20202;-82
2022/04/02 02:25:23;;;;;;;20.38;13.43;;;;;;;;;;5054708;28;20173;-76
2022/04/02 02:27:49;;;;;;;18.10;12.47;;;;;;;;;;5054724;28;20226;-81
2022/04/02 02:30:16;;;;;;;18.77;11.77;;;;;;;;;;5054732;28;20494;-83
2022/04/02 02:32:42;;;;;;;16.65;8.45;;;;;;;;;;5054445;28;20659;-69
2022/04/02 02:38:11;;;;;;;18.75;10.00;;;;;;;;;;5054579;28;20187;-70
2022/04/02 02:40:37;;;;;;;12.93;7.00;;;;;;;;;;5055332;28;20220;-77
2022/04/02 02:43:04;;;;;;;17.75;11.15;;;;;;;;;;5054325;28;20209;-78
2022/04/02 02:45:33;;;;;;;15.95;10.77;;;;;;;;;;5054248;28;20287;-78
2022/04/02 02:48:00;;;;;;;19.58;11.63;;;;;;;;;;5054433;28;20237;-81
2022/04/02 02:50:26;;;;;;;18.00;11.00;;;;;;;;;;5054283;28;20731;-80
2022/04/02 02:52:52;;;;;;;19.55;11.27;;;;;;;;;;5054259;28;20180;-75
2022/04/02 02:55:19;;;;;;;14.75;10.15;;;;;;;;;;5054015;28;20171;-83
2022/04/02 02:57:45;;;;;;;14.00;8.73;;;;;;;;;;5054014;28;20222;-82
2022/04/02 03:00:12;;;;;;;19.13;11.18;;;;;;;;;;5054045;28;20167;-67
2022/04/02 03:02:39;;;;;;;15.10;10.68;;;;;;;;;;5053591;28;20223;-81
2022/04/02 03:05:11;;;;;;;14.70;10.13;;;;;;;;;;5054028;28;20185;-82
2022/04/02 03:07:38;;;;;;;11.88;9.10;;;;;;;;;;5053245;28;20181;-67
2022/04/02 03:10:04;;;;;;;13.75;10.25;;;;;;;;;;5053930;28;20204;-77
2022/04/02 03:12:30;;;;;;;12.48;10.13;;;;;;;;;;5053694;28;20222;-81
2022/04/02 03:14:56;;;;;;;15.00;10.40;;;;;;;;;;5053782;28;20689;-76
2022/04/02 03:17:22;;;;;;;14.47;9.27;;;;;;;;;;5053772;28;20404;-80
2022/04/02 03:19:48;;;;;;;17.80;9.63;;;;;;;;;;5053598;28;20870;-65
2022/04/02 03:22:14;;;;;;;15.77;9.60;;;;;;;;;;5054099;28;20441;-76
2022/04/02 03:24:40;;;;;;;12.63;9.03;;;;;;;;;;5053490;28;20899;-77
2022/04/02 03:27:06;;;;;;;14.07;9.37;;;;;;;;;;5053542;28;20457;-65
2022/04/02 03:29:32;;;;;;;13.70;9.47;;;;;;;;;;5053111;28;20913;-82
2022/04/02 03:31:58;;;;;;;17.40;10.30;;;;;;;;;;5052177;28;20833;-81
2022/04/02 03:34:24;;;;;;;15.15;8.57;;;;;;;;;;5053538;28;20184;-84
2022/04/02 03:36:50;;;;;;;9.13;6.73;;;;;;;;;;5053385;28;20171;-80
2022/04/02 03:39:16;;;;;;;12.05;7.38;;;;;;;;;;5053437;28;20482;-81
2022/04/02 03:41:42;;;;;;;12.65;7.18;;;;;;;;;;5053339;28;20633;-80
2022/04/02 03:44:08;;;;;;;14.52;9.50;;;;;;;;;;5053113;28;20211;-77
2022/04/02 03:49:21;;;;;;;8.88;6.53;;;;;;;;;;5052999;28;20752;-78
2022/04/02 03:51:47;;;;;;;10.27;7.45;;;;;;;;;;5053177;28;20267;-81
2022/04/02 03:54:13;;;;;;;11.60;7.45;;;;;;;;;;5052936;28;20249;-80
2022/04/02 03:56:39;;;;;;;10.45;6.55;;;;;;;;;;5051789;28;20206;-64
2022/04/02 03:59:06;;;;;;;12.63;7.80;;;;;;;;;;5051827;28;20192;-77
2022/04/02 04:01:32;;;;;;;17.13;9.63;;;;;;;;;;5052974;28;20623;-80
2022/04/02 04:03:58;;;;;;;15.60;8.23;;;;;;;;;;5051424;28;20240;-78
2022/04/02 04:06:24;;;;;;;13.00;7.30;;;;;;;;;;5052957;28;20607;-67
2022/04/02 04:08:52;;;;;;;16.20;7.70;;;;;;;;;;5053061;28;20404;-80
2022/04/02 04:11:18;;;;;;;18.55;7.72;;;;;;;;;;5052966;28;20755;-83
2022/04/02 04:13:44;;;;;;;14.60;7.97;;;;;;;;;;5051718;28;20183;-63
2022/04/02 04:16:10;;;;;;;15.17;7.67;;;;;;;;;;5052935;28;20436;-67
2022/04/02 04:18:36;;;;;;;14.43;8.17;;;;;;;;;;5053000;28;20881;-74
2022/04/02 04:21:02;;;;;;;13.67;7.90;;;;;;;;;;5057096;28;20414;-75
2022/04/02 04:23:28;;;;;;;13.55;7.95;;;;;;;;;;5055658;28;20553;-80
2022/04/02 04:25:54;;;;;;;15.80;7.85;;;;;;;;;;5055632;28;20209;-77
2022/04/02 04:28:20;;;;;;;14.80;7.20;;;;;;;;;;5056975;28;20205;-79
2022/04/02 04:30:48;;;;;;;11.20;6.70;;;;;;;;;;5056656;28;20493;-79
2022/04/02 04:33:15;;;;;;;12.70;8.63;;;;;;;;;;5056724;28;20754;-63
2022/04/02 04:35:41;;;;;;;17.85;8.60;;;;;;;;;;5056798;28;20175;-74
2022/04/02 04:38:07;;;;;;;12.85;7.75;;;;;;;;;;5056777;28;20223;-76
2022/04/02 04:40:33;;;;;;;16.52;9.20;;;;;;;;;;5056559;28;20168;-81
2022/04/02 04:42:59;;;;;;;14.57;10.20;;;;;;;;;;5056715;28;20203;-80
2022/04/02 04:45:25;;;;;;;14.50;9.20;;;;;;;;;;5056561;28;20243;-77
2022/04/02 04:47:51;;;;;;;15.83;10.47;;;;;;;;;;5056524;28;20449;-79
2022/04/02 04:50:19;;;;;;;15.75;10.23;;;;;;;;;;5056366;28;20463;-80
2022/04/02 04:52:45;;;;;;;14.55;9.60;;;;;;;;;;5056502;28;20204;-68
2022/04/02 04:55:11;;;;;;;14.18;10.30;;;;;;;;;;5056245;28;20527;-65
2022/04/02 04:57:37;;;;;;;16.02;9.27;;;;;;;;;;5056453;28;20294;-67
2022/04/02 05:00:04;;;;;;;15.60;9.45;;;;;;;;;;5056385;28;20190;-79
2022/04/02 05:02:31;;;;;;;15.95;10.68;;;;;;;;;;5055810;28;20741;-76
2022/04/02 05:04:57;;;;;;;15.63;9.80;;;;;;;;;;5056310;28;20191;-65
2022/04/02 05:07:24;;;;;;;20.23;10.35;;;;;;;;;;5056249;28;20169;-79
2022/04/02 05:09:50;;;;;;;15.60;9.85;;;;;;;;;;5056123;28;20188;-74
2022/04/02 05:12:16;;;;;;;17.33;10.37;;;;;;;;;;5056007;28;20176;-68
2022/04/02 05:14:42;;;;;;;16.58;10.90;;;;;;;;;;5056134;28;20406;-64
2022/04/02 05:17:08;;;;;;;18.85;11.25;;;;;;;;;;5056282;28;20354;-68
2022/04/02 05:19:34;;;;;;;19.67;11.53;;;;;;;;;;5055897;28;20706;-64
2022/04/02 05:22:01;;;;;;;14.53;9.60;;;;;;;;;;5055944;28;20506;-78
2022/04/02 05:24:27;;;;;;;15.73;10.48;;;;;;;;;;5055736;28;20490;-65
2022/04/02 05:26:53;;;;;;;17.30;10.10;;;;;;;;;;5055905;28;20168;-64
2022/04/02 05:29:19;;;;;;;14.10;9.50;;;;;;;;;;5055706;28;20521;-70
2022/04/02 05:31:46;;;;;;;15.35;10.35;;;;;;;;;;5054743;28;20912;-70
2022/04/02 05:34:12;;;;;;;9.32;7.35;;;;;;;;;;5055565;28;20174;-79
2022/04/02 05:36:38;;;;;;;9.55;7.25;;;;;;;;;;5055669;28;20172;-74
2022/04/02 05:39:04;;;;;;;14.35;8.80;;;;;;;;;;5055497;28;20175;-77
2022/04/02 05:41:30;;;;;;;14.23;8.88;;;;;;;;;;5055523;28;20171;-65
2022/04/02 05:43:56;;;;;;;17.45;8.90;;;;;;;;;;5055451;28;20212;-64
2022/04/02 05:46:23;;;;;;;14.57;9.70;;;;;;;;;;5055422;28;20183;-77
2022/04/02 05:48:49;;;;;;;14.75;9.55;;;;;;;;;;5055302;28;20436;-80
2022/04/02 05:51:15;;;;;;;16.10;9.52;;;;;;;;;;5055967;28;20172;-65
2022/04/02 05:53:41;;;;;;;12.13;8.95;;;;;;;;;;5055614;28;20176;-84
2022/04/02 05:56:08;;;;;;;14.23;8.93;;;;;;;;;;5055276;28;20274;-80
2022/04/02 05:58:37;;;;;;;17.42;10.13;;;;;;;;;;5055334;28;20177;-73
2022/04/02 06:01:03;;;;;;;13.05;9.30;;;;;;;;;;5055120;28;20204;-77
2022/04/02 06:03:29;;;;;;;17.48;10.18;;;;;;;;;;5054878;28;20297;-75
2022/04/02 06:05:55;;;;;;;12.85;8.65;;;;;;;;;;5053886;28;20245;-75
2022/04/02 06:08:21;;;;;;;14.25;9.85;;;;;;;;;;5055126;28;20195;-76
2022/04/02 06:10:47;;;;;;;16.33;9.60;;;;;;;;;;5055190;28;20188;-78
2022/04/02 06:13:14;;;;;;;13.00;8.48;;;;;;;;;;5055094;28;20489;-78
2022/04/02 06:15:40;;;;;;;13.70;9.10;;;;;;;;;;5055073;28;20165;-76
2022/04/02 06:18:07;;;;;;;13.13;8.65;;;;;;;;;;5054861;28;20214;-67
2022/04/02 06:20:33;;;;;;;12.65;8.13;;;;;;;;;;5054965;28;20175;-65
2022/04/02 06:22:59;;;;;;;15.55;9.05;;;;;;;;;;5054785;28;20565;-65
2022/04/02 06:25:25;;;;;;;12.27;8.10;;;;;;;;;;5053449;28;20207;-65
2022/04/02 06:27:54;;;;;;;11.25;8.68;;;;;;;;;;5053475;28;20172;-66
2022/04/02 06:30:23;;;;;;;14.48;8.25;;;;;;;;;;5054561;28;20169;-72
2022/04/02 06:32:49;;;;;;;11.55;8.23;;;;;;;;;;5054451;28;20211;-68
2022/04/02 06:35:15;;;;;;;13.32;9.25;;;;;;;;;;5054460;28;20176;-79
2022/04/02 06:37:42;;;;;;;12.90;8.47;;;;;;;;;;5053314;28;20187;-77
2022/04/02 06:40:09;;;;;;;14.75;9.30;;;;;;;;;;5054385;28;20422;-82
2022/04/02 06:42:36;;;;;;;13.52;8.82;;;;;;;;;;5053246;28;20177;-80
2022/04/02 06:45:02;;;;;;;11.38;8.43;;;;;;;;;;5054224;28;20188;-83
2022/04/02 06:47:29;;;;;;;10.95;7.90;;;;;;;;;;5054448;28;20251;-82
2022/04/02 06:49:56;;;;;;;8.18;6.70;;;;;;;;;;5054212;28;20272;-82
2022/04/02 06:52:22;;;;;;;12.52;8.32;;;;;;;;;;5054247;28;20173;-75
2022/04/02 06:54:48;;;;;;;13.05;8.50;;;;;;;;;;5054021;28;20656;-72
2022/04/02 06:57:21;;;;;;;11.00;8.10;;;;;;;;;;5054111;28;20176;-75
2022/04/02 06:59:47;;;;;;;10.95;7.50;;;;;;;;;;5054172;28;20192;-78
2022/04/02 07:02:13;;;;;;;12.35;8.35;;;;;;;;;;5053716;28;20259;-73
2022/04/02 07:04:40;;;;;;;9.70;7.30;;;;;;;;;;5053810;28;20215;-65
2022/04/02 07:07:06;;;;;;;11.10;7.95;;;;;;;;;;5053850;28;20484;-81
2022/04/02 07:09:32;;;;;;;12.10;7.50;;;;;;;;;;5053731;28;20180;-83
2022/04/02 07:11:58;;;;;;;9.10;6.93;;;;;;;;;;5053862;28;20169;-73
2022/04/02 07:14:24;;;;;;;12.10;7.33;;;;;;;;;;5053718;28;20977;-65
2022/04/02 07:16:50;;;;;;;7.83;6.60;;;;;;;;;;5053670;28;20394;-73
2022/04/02 07:19:20;;;;;;;8.57;6.00;;;;;;;;;;5052462;28;20445;-72
2022/04/02 07:21:46;;;;;;;9.20;6.70;;;;;;;;;;5053574;28;20177;-67
2022/04/02 07:24:14;;;;;;;10.63;6.35;;;;;;;;;;5053577;28;20216;-78
2022/04/02 07:26:40;;;;;;;9.40;7.35;;;;;;;;;;5053442;28;20226;-77
2022/04/02 07:29:08;;;;;;;12.45;6.93;;;;;;;;;;5052152;28;20168;-71
2022/04/02 07:31:34;;;;;;;10.57;6.88;;;;;;;;;;5053351;28;20189;-66
2022/04/02 07:34:00;;;;;;;13.83;7.97;;;;;;;;;;5053473;28;20180;-80
2022/04/02 07:36:29;;;;;;;9.80;6.20;;;;;;;;;;5053384;28;20792;-67
2022/04/02 07:38:55;;;;;;;10.00;7.35;;;;;;;;;;5053329;28;20419;-66
2022/04/02 07:41:26;;;;;;;12.43;8.40;;;;;;;;;;5053314;28;20179;-66
2022/04/02 07:44:11;;;;;;;10.98;8.05;;;;;;;;;;5053244;28;20489;-72
2022/04/02 07:46:41;;;;;;;14.00;8.40;;;;;;;;;;5053269;28;20185;-68
2022/04/02 07:49:11;;;;;;;13.30;6.07;;;;;;;;;;5051806;28;20171;-66
2022/04/02 07:51:38;;;;;;;5.18;4.68;;;;;;;;;;5052026;28;20189;-74
2022/04/02 07:54:07;;;;;;;10.02;7.13;;;;;;;;;;5051452;28;20211;-67
2022/04/02 07:56:39;;;;;;;9.93;7.50;;;;;;;;;;5053212;28;20172;-72
2022/04/02 07:59:08;;;;;;;10.25;6.97;;;;;;;;;;5053063;28;20204;-68
2022/04/02 08:01:34;;;;;;;9.55;6.63;;;;;;;;;;5052990;28;20271;-76
2022/04/02 08:04:03;;;;;;;12.18;7.13;;;;;;;;;;5052819;28;20247;-81
2022/04/02 08:06:34;;;;;;;11.45;7.60;;;;;;;;;;5053104;28;20254;-74
2022/04/02 08:09:01;;;;;;;9.48;6.15;;;;;;;;;;5053151;28;20176;-65
2022/04/02 08:11:27;;;;;;;10.65;6.55;;;;;;;;;;5052820;28;20179;-68
2022/04/02 08:13:54;;;;;;;7.40;5.32;;;;;;;;;;5051557;28;20550;-71
2022/04/02 08:16:20;;;;;;;9.57;5.95;;;;;;;;;;5052969;28;20172;-73
2022/04/02 08:18:47;;;;;;;10.48;7.55;;;;;;;;;;5052910;28;20286;-68
2022/04/02 08:21:14;;;;;;;11.57;7.43;;;;;;;;;;5053018;28;20208;-67
2022/04/02 08:23:40;;;;;;;8.90;6.55;;;;;;;;;;5052763;28;20747;-80
2022/04/02 08:26:12;;;;;;;11.05;5.03;;;;;;;;;;5052840;28;20504;-74
2022/04/02 08:28:48;;;;;;;11.38;7.32;;;;;;;;;;5051437;28;20179;-67
2022/04/02 08:31:29;;;;;;;9.85;7.00;;;;;;;;;;5052789;28;20191;-80
2022/04/02 08:34:04;;;;;;;16.73;5.95;;;;;;;;;;5051432;28;20184;-74
2022/04/02 08:36:38;;;;;;;9.93;5.57;;;;;;;;;;5052870;28;20168;-72
2022/04/02 08:39:05;;;;;;;12.82;6.85;;;;;;;;;;5052901;28;20171;-66
2022/04/02 08:41:52;;;;;;;11.80;7.10;;;;;;;;;;5051469;28;20188;-69
2022/04/02 08:44:24;;;;;;;8.73;4.60;;;;;;;;;;5051291;28;20221;-66
2022/04/02 08:47:02;;;;;;;10.25;7.40;;;;;;;;;;5052574;28;20179;-65
2022/04/02 08:49:39;;;;;;;12.20;8.07;;;;;;;;;;5052504;28;20176;-78
2022/04/02 08:52:17;;;;;;;11.23;7.18;;;;;;;;;;5052658;28;20230;-66
2022/04/02 08:55:13;;;;;;;8.68;6.28;;;;;;;;;;5052487;28;20212;-66
2022/04/02 08:57:54;;;;;;;8.50;6.30;;;;;;;;;;5050480;28;20196;-65
2022/04/02 09:00:24;;;;;;;9.50;6.40;;;;;;;;;;5052507;28;20172;-76
2022/04/02 09:03:12;;;;;;;13.30;7.40;;;;;;;;;;5052126;28;20230;-81
2022/04/02 09:05:58;;;;;;;13.00;7.68;;;;;;;;;;5052706;28;20199;-67
2022/04/02 09:08:42;;;;;;;11.32;7.10;;;;;;;;;;5055051;28;20199;-65
2022/04/02 09:11:22;;;;;;;11.88;8.13;;;;;;;;;;5056506;28;20172;-65
2022/04/02 09:13:59;;;;;;;13.05;7.63;;;;;;;;;;5056351;28;20624;-69
2022/04/02 09:16:29;;;;;;;11.00;6.68;;;;;;;;;;5054755;28;20178;-82
2022/04/02 09:19:04;;;;;;;6.78;4.65;;;;;;;;;;5056054;28;20204;-66
2022/04/02 09:21:50;;;;;;;12.80;8.45;;;;;;;;;;5055983;28;20622;-65
2022/04/02 09:24:35;;;;;;;13.57;8.95;;;;;;;;;;5055857;28;20683;-77
2022/04/02 09:27:04;;;;;;;12.48;8.77;;;;;;;;;;5055812;28;20194;-69
2022/04/02 09:29:32;;;;;;;11.85;8.43;;;;;;;;;;5055792;28;20204;-66
2022/04/02 09:32:06;;;;;;;14.82;8.10;;;;;;;;;;5055693;28;20207;-66
2022/04/02 09:34:32;;;;;;;13.13;8.63;;;;;;;;;;5055685;28;20294;-66
2022/04/02 09:36:59;;;;;;;11.97;6.67;;;;;;;;;;5054455;28;20638;-66
2022/04/02 09:39:44;;;;;;;6.55;5.22;;;;;;;;;;5055813;28;20407;-66
2022/04/02 09:42:19;;;;;;;10.05;6.35;;;;;;;;;;5055547;28;20179;-72
2022/04/02 09:44:59;;;;;;;7.65;5.15;;;;;;;;;;5055429;28;20265;-67
2022/04/02 09:47:51;;;;;;;12.20;7.95;;;;;;;;;;5055534;28;20176;-80
2022/04/02 09:50:27;;;;;;;13.63;8.95;;;;;;;;;;5054307;28;20665;-69
2022/04/02 09:52:55;;;;;;;13.43;8.45;;;;;;;;;;5055547;28;20172;-79
2022/04/02 09:55:28;;;;;;;12.00;8.82;;;;;;;;;;5055377;28;20630;-67
2022/04/02 09:58:01;;;;;;;14.60;8.73;;;;;;;;;;5054075;28;20726;-68
2022/04/02 10:00:50;;;;;;;18.17;9.88;;;;;;;;;;5055360;28;20674;-78
2022/04/02 10:03:31;;;;;;;12.48;7.68;;;;;;;;;;5054949;28;20220;-74
2022/04/02 10:06:19;;;;;;;15.43;9.02;;;;;;;;;;5055374;28;20172;-67
2022/04/02 10:08:45;;;;;;;10.23;5.72;;;;;;;;;;5053817;28;20647;-67
2022/04/02 10:11:12;;;;;;;12.50;8.23;;;;;;;;;;5055055;28;20174;-71
2022/04/02 10:13:39;;;;;;;14.07;9.25;;;;;;;;;;5053769;28;20472;-69
2022/04/02 10:16:05;;;;;;;13.07;7.97;;;;;;;;;;5055086;28;20176;-67
2022/04/02 10:18:34;;;;;;;11.30;8.48;;;;;;;;;;5054735;28;20165;-67
2022/04/02 10:21:03;;;;;;;13.73;8.45;;;;;;;;;;5053699;28;20193;-67
2022/04/02 10:23:30;;;;;;;12.80;6.68;;;;;;;;;;5054694;28;20576;-67
2022/04/02 10:26:15;;;;;;;10.10;5.93;;;;;;;;;;5054730;28;20183;-67
2022/04/02 10:28:52;;;;;;;13.25;8.05;;;;;;;;;;5054538;28;20266;-67
2022/04/02 10:31:31;;;;;;;10.77;8.38;;;;;;;;;;5053366;28;20203;-76
2022/04/02 10:34:02;;;;;;;14.82;8.88;;;;;;;;;;5054565;28;20203;-68
2022/04/02 10:36:28;;;;;;;13.85;9.00;;;;;;;;;;5054571;28;20181;-71
2022/04/02 10:38:55;;;;;;;13.40;8.60;;;;;;;;;;5054679;28;20172;-67
2022/04/02 10:41:23;;;;;;;13.32;7.88;;;;;;;;;;5053389;28;20271;-67
2022/04/02 10:43:59;;;;;;;15.77;9.80;;;;;;;;;;5053110;28;20218;-65
2022/04/02 10:46:26;;;;;;;14.40;8.40;;;;;;;;;;5054323;28;20200;-66
2022/04/02 10:48:55;;;;;;;13.90;9.07;;;;;;;;;;5054292;28;20173;-66
2022/04/02 10:51:23;;;;;;;13.02;7.85;;;;;;;;;;5054368;28;20177;-66
2022/04/02 10:53:54;;;;;;;12.40;8.48;;;;;;;;;;5054207;28;20251;-66
2022/04/02 10:56:24;;;;;;;12.63;8.35;;;;;;;;;;5054209;28;20176;-66
2022/04/02 10:58:54;;;;;;;15.50;7.93;;;;;;;;;;5054165;28;20649;-66
2022/04/02 11:01:22;;;;;;;10.00;7.75;;;;;;;;;;5054083;28;20193;-68
2022/04/02 11:03:54;;;;;;;13.68;8.38;;;;;;;;;;5053852;28;20228;-66
2022/04/02 11:06:39;;;;;;;13.00;8.10;;;;;;;;;;5054064;28;20267;-66
2022/04/02 11:09:23;;;;;;;12.38;7.10;;;;;;;;;;5053812;28;20529;-66
2022/04/02 11:11:50;;;;;;;9.88;6.40;;;;;;;;;;5053967;28;20180;-66
2022/04/02 11:14:22;;;;;;;10.07;6.43;;;;;;;;;;5053867;28;20535;-65
2022/04/02 11:16:49;;;;;;;17.42;9.75;;;;;;;;;;5053917;28;20187;-65
2022/04/02 11:22:04;;;;;;;15.15;9.07;;;;;;;;;;5053829;28;20184;-66
2022/04/02 11:24:56;;;;;;;14.63;9.55;;;;;;;;;;5053553;28;20566;-66
2022/04/02 11:27:24;;;;;;;11.52;8.55;;;;;;;;;;5052390;28;20183;-68
2022/04/02 11:29:51;;;;;;;12.25;7.90;;;;;;;;;;5052978;28;20172;-65
2022/04/02 11:32:27;;;;;;;15.98;9.30;;;;;;;;;;5053572;28;20196;-65
2022/04/02 11:34:54;;;;;;;9.95;7.70;;;;;;;;;;5053626;28;20176;-66
2022/04/02 11:37:27;;;;;;;14.35;8.68;;;;;;;;;;5053519;28;20164;-65
2022/04/02 11:39:57;;;;;;;14.77;9.15;;;;;;;;;;5053546;28;20172;-65
2022/04/02 11:42:27;;;;;;;12.90;9.05;;;;;;;;;;5052213;28;20187;-65
2022/04/02 11:44:53;;;;;;;14.32;9.23;;;;;;;;;;5053226;28;20208;-65
2022/04/02 11:47:26;;;;;;;16.08;8.50;;;;;;;;;;5053348;28;20176;-72
2022/04/02 11:49:53;;;;;;;10.40;7.78;;;;;;;;;;5053304;28;20187;-65
2022/04/02 11:52:19;;;;;;;15.68;9.45;;;;;;;;;;5053242;28;20215;-66
2022/04/02 11:54:45;;;;;;;13.97;8.27;;;;;;;;;;5053264;28;20176;-67
2022/04/02 11:57:13;;;;;;;11.37;7.27;;;;;;;;;;5053238;28;20515;-67
2022/04/02 12:00:01;;;;;;;16.70;8.93;;;;;;;;;;5053268;28;20422;-66
2022/04/02 12:02:35;;;;;;;13.45;8.48;;;;;;;;;;5051918;28;20541;-65
2022/04/02 12:05:01;;;;;;;13.45;8.05;;;;;;;;;;5053048;28;20207;-68
2022/04/02 12:07:38;;;;;;;12.68;7.80;;;;;;;;;;5053389;28;20174;-70
2022/04/02 12:10:05;;;;;;;11.85;8.15;;;;;;;;;;5052963;28;20176;-66
2022/04/02 12:12:31;;;;;;;15.30;9.88;;;;;;;;;;5052935;28;20619;-66
2022/04/02 12:15:08;;;;;;;14.45;9.85;;;;;;;;;;5052981;28;20172;-66
2022/04/02 12:17:35;;;;;;;12.88;8.50;;;;;;;;;;5052940;28;20190;-70
2022/04/02 12:20:01;;;;;;;16.35;9.82;;;;;;;;;;5052983;28;20480;-68
2022/04/02 12:22:27;;;;;;;15.52;9.10;;;;;;;;;;5053107;28;20172;-67
2022/04/02 12:24:57;;;;;;;25.87;12.30;;;;;;;;;;5052782;28;20216;-66
2022/04/02 12:27:24;;;;;;;14.73;9.40;;;;;;;;;;5052923;28;20394;-67
2022/04/02 12:29:54;;;;;;;16.02;9.75;;;;;;;;;;5052784;28;21297;-67
2022/04/02 12:32:28;;;;;;;16.23;9.93;;;;;;;;;;5051486;28;20212;-72
2022/04/02 12:35:01;;;;;;;18.73;9.55;;;;;;;;;;5051531;28;20207;-78
2022/04/02 12:37:28;;;;;;;14.35;9.98;;;;;;;;;;5052911;28;20180;-73
2022/04/02 12:39:54;;;;;;;11.93;7.40;;;;;;;;;;5053402;28;20263;-68
2022/04/02 12:42:40;;;;;;;16.83;7.93;;;;;;;;;;5056778;28;20636;-75
2022/04/02 12:45:10;;;;;;;17.30;11.43;;;;;;;;;;5056559;28;20577;-77
2022/04/02 12:47:36;;;;;;;38.83;9.80;;;;;;;;;;5056753;28;20175;-74
2022/04/02 12:50:12;;;;;;;15.43;10.80;;;;;;;;;;5056399;28;20180;-78
2022/04/02 12:52:48;;;;;;;16.83;9.15;;;;;;;;;;5056706;28;20173;-74
2022/04/02 12:55:25;;;;;;;17.20;9.95;;;;;;;;;;5056615;28;20208;-77
2022/04/02 12:58:05;;;;;;;15.20;9.40;;;;;;;;;;5056509;28;20180;-76
2022/04/02 13:00:32;;;;;;;17.30;9.60;;;;;;;;;;5056396;28;20176;-76
2022/04/02 13:03:00;;;;;;;21.00;11.15;;;;;;;;;;5055872;28;20568;-77
2022/04/02 13:05:43;;;;;;;18.45;11.23;;;;;;;;;;5056357;28;20577;-74
2022/04/02 13:08:10;;;;;;;18.02;9.07;;;;;;;;;;5055149;28;20176;-72
2022/04/02 13:10:43;;;;;;;19.60;10.27;;;;;;;;;;5056160;28;20179;-74
2022/04/02 13:13:11;;;;;;;17.35;10.43;;;;;;;;;;5056249;28;20519;-78
2022/04/02 13:15:38;;;;;;;15.50;10.13;;;;;;;;;;5056149;28;20261;-74
2022/04/02 13:20:57;;;;;;;19.73;10.60;;;;;;;;;;5056291;28;20542;-74
2022/04/02 13:24:02;;;;;;;15.55;9.25;;;;;;;;;;5054721;28;20214;-74
2022/04/02 13:26:32;;;;;;;21.83;10.68;;;;;;;;;;5037178;28;20194;-76
2022/04/02 13:28:58;;;;;;;17.55;10.70;;;;;;;;;;5053810;28;20254;-75
2022/04/02 13:31:26;;;;;;;15.10;10.63;;;;;;;;;;5054570;28;20672;-74
2022/04/02 13:34:12;;;;;;;15.38;10.10;;;;;;;;;;5054550;28;20510;-78
2022/04/02 13:36:50;;;;;;;16.20;9.65;;;;;;;;;;5055882;28;20686;-78
2022/04/02 13:39:20;;;;;;;15.77;10.73;;;;;;;;;;5055773;28;20181;-68
2022/04/02 13:41:52;;;;;;;17.50;10.00;;;;;;;;;;5055841;28;20168;-67
2022/04/02 13:44:23;;;;;;;16.20;10.25;;;;;;;;;;5055737;28;20223;-78
2022/04/02 13:46:53;;;;;;;17.75;10.02;;;;;;;;;;5055667;28;20176;-66
2022/04/02 13:49:33;;;;;;;17.95;11.07;;;;;;;;;;5055525;28;20697;-74
2022/04/02 13:52:03;;;;;;;18.85;10.57;;;;;;;;;;5054996;28;20176;-76
2022/04/02 13:54:43;;;;;;;15.73;10.70;;;;;;;;;;5055638;28;20175;-65
2022/04/02 13:57:19;;;;;;;15.93;10.90;;;;;;;;;;5055520;28;20203;-73
2022/04/02 14:00:06;;;;;;;20.33;11.32;;;;;;;;;;5055551;28;20179;-75
2022/04/02 14:02:33;;;;;;;19.15;11.02;;;;;;;;;;5055178;28;20274;-75
2022/04/02 14:05:05;;;;;;;16.15;9.13;;;;;;;;;;5055245;28;20277;-77
2022/04/02 14:07:34;;;;;;;14.25;7.43;;;;;;;;;;5055265;28;20226;-74
2022/04/02 14:10:12;;;;;;;15.30;10.77;;;;;;;;;;5055154;28;20171;-74
2022/04/02 14:12:41;;;;;;;16.95;11.00;;;;;;;;;;5055164;28;20199;-78
2022/04/02 14:15:08;;;;;;;17.13;10.38;;;;;;;;;;5055154;28;20315;-67
2022/04/02 14:17:38;;;;;;;13.82;9.00;;;;;;;;;;5053882;28;20186;-74
2022/04/02 14:20:06;;;;;;;14.98;9.27;;;;;;;;;;5054009;28;20604;-80
2022/04/02 14:22:36;;;;;;;16.30;10.15;;;;;;;;;;5055029;28;20636;-74
2022/04/02 14:25:09;;;;;;;14.38;8.90;;;;;;;;;;5053639;28;20220;-69
2022/04/02 14:27:57;;;;;;;20.52;10.88;;;;;;;;;;5053801;28;20183;-67
2022/04/02 14:30:37;;;;;;;20.70;11.38;;;;;;;;;;5054852;28;20239;-78
2022/04/02 14:33:21;;;;;;;22.60;10.75;;;;;;;;;;5054704;28;20541;-76
2022/04/02 14:35:59;;;;;;;18.80;11.75;;;;;;;;;;5054883;28;20175;-79
2022/04/02 14:38:31;;;;;;;17.65;10.52;;;;;;;;;;5055117;28;20237;-77
2022/04/02 14:41:00;;;;;;;15.45;10.75;;;;;;;;;;5054903;28;20232;-75
2022/04/02 14:43:45;;;;;;;18.65;11.20;;;;;;;;;;5054775;28;20223;-82
2022/04/02 14:46:37;;;;;;;19.75;12.32;;;;;;;;;;5055123;28;20194;-80
2022/04/02 14:49:22;;;;;;;22.20;12.55;;;;;;;;;;5054326;28;20671;-82
2022/04/02 14:51:51;;;;;;;26.13;11.88;;;;;;;;;;5055158;28;20176;-75
2022/04/02 14:54:45;;;;;;;18.23;11.77;;;;;;;;;;5054735;28;20161;-81